sensor_id;sensor_type;location;lat;lon;timestamp;P1;durP1;ratioP1;P2;durP2;ratioP2
53903;SDS011;39812;52.430;16.936;2024-03-07T00:02:15;29.25;;;11.18;;
53903;SDS011;39812;52.430;16.936;2024-03-07T00:04:42;26.77;;;9.40;;
53903;SDS011;39812;52.430;16.936;2024-03-07T00:07:08;23.65;;;9.25;;
53903;SDS011;39812;52.430;16.936;2024-03-07T00:09:34;22.75;;;9.07;;
53903;SDS011;39812;52.430;16.936;2024-03-07T00:12:00;15.73;;;8.10;;
53903;SDS011;39812;52.430;16.936;2024-03-07T00:14:27;19.67;;;9.50;;
53903;SDS011;39812;52.430;16.936;2024-03-07T00:16:53;25.08;;;9.80;;
53903;SDS011;39812;52.430;16.936;2024-03-07T00:19:22;20.05;;;8.90;;
53903;SDS011;39812;52.430;16.936;2024-03-07T00:21:57;22.98;;;9.73;;
53903;SDS011;39812;52.430;16.936;2024-03-07T00:24:24;22.13;;;8.68;;
53903;SDS011;39812;52.430;16.936;2024-03-07T00:26:52;20.98;;;8.55;;
53903;SDS011;39812;52.430;16.936;2024-03-07T00:29:18;23.15;;;9.07;;
53903;SDS011;39812;52.430;16.936;2024-03-07T00:31:44;20.58;;;10.00;;
53903;SDS011;39812;52.430;16.936;2024-03-07T00:34:12;17.73;;;8.82;;
53903;SDS011;39812;52.430;16.936;2024-03-07T00:36:39;16.10;;;8.85;;
53903;SDS011;39812;52.430;16.936;2024-03-07T00:39:05;21.38;;;8.70;;
53903;SDS011;39812;52.430;16.936;2024-03-07T00:41:33;20.70;;;9.57;;
53903;SDS011;39812;52.430;16.936;2024-03-07T00:43:59;21.25;;;9.18;;
53903;SDS011;39812;52.430;16.936;2024-03-07T00:46:25;18.23;;;8.40;;
53903;SDS011;39812;52.430;16.936;2024-03-07T00:48:51;19.85;;;9.23;;
53903;SDS011;39812;52.430;16.936;2024-03-07T00:51:16;18.30;;;8.93;;
53903;SDS011;39812;52.430;16.936;2024-03-07T00:53:42;21.60;;;8.40;;
53903;SDS011;39812;52.430;16.936;2024-03-07T00:56:07;21.20;;;9.77;;
53903;SDS011;39812;52.430;16.936;2024-03-07T00:58:33;19.00;;;8.63;;
53903;SDS011;39812;52.430;16.936;2024-03-07T01:01:00;21.92;;;8.40;;
53903;SDS011;39812;52.430;16.936;2024-03-07T01:03:26;21.38;;;9.18;;
53903;SDS011;39812;52.430;16.936;2024-03-07T01:05:52;20.33;;;9.25;;
53903;SDS011;39812;52.430;16.936;2024-03-07T01:08:18;18.95;;;9.32;;
53903;SDS011;39812;52.430;16.936;2024-03-07T01:10:43;23.67;;;9.25;;
53903;SDS011;39812;52.430;16.936;2024-03-07T01:13:10;16.08;;;8.25;;
53903;SDS011;39812;52.430;16.936;2024-03-07T01:15:43;17.30;;;7.63;;
53903;SDS011;39812;52.430;16.936;2024-03-07T01:18:09;18.42;;;9.25;;
53903;SDS011;39812;52.430;16.936;2024-03-07T01:20:35;17.23;;;8.48;;
53903;SDS011;39812;52.430;16.936;2024-03-07T01:23:01;15.98;;;8.20;;
53903;SDS011;39812;52.430;16.936;2024-03-07T01:25:27;19.92;;;8.60;;
53903;SDS011;39812;52.430;16.936;2024-03-07T01:27:52;23.90;;;8.80;;
53903;SDS011;39812;52.430;16.936;2024-03-07T01:30:18;19.92;;;8.65;;
53903;SDS011;39812;52.430;16.936;2024-03-07T01:32:44;16.02;;;7.70;;
53903;SDS011;39812;52.430;16.936;2024-03-07T01:35:10;18.10;;;8.75;;
53903;SDS011;39812;52.430;16.936;2024-03-07T01:37:35;13.48;;;7.68;;
53903;SDS011;39812;52.430;16.936;2024-03-07T01:40:02;15.77;;;8.60;;
53903;SDS011;39812;52.430;16.936;2024-03-07T01:42:30;17.65;;;7.88;;
53903;SDS011;39812;52.430;16.936;2024-03-07T01:44:56;19.98;;;8.20;;
53903;SDS011;39812;52.430;16.936;2024-03-07T01:47:21;16.95;;;8.18;;
53903;SDS011;39812;52.430;16.936;2024-03-07T01:49:47;19.85;;;9.02;;
53903;SDS011;39812;52.430;16.936;2024-03-07T01:52:13;18.95;;;8.25;;
53903;SDS011;39812;52.430;16.936;2024-03-07T01:54:39;15.43;;;7.95;;
53903;SDS011;39812;52.430;16.936;2024-03-07T01:57:04;19.33;;;8.32;;
53903;SDS011;39812;52.430;16.936;2024-03-07T01:59:30;19.15;;;8.13;;
53903;SDS011;39812;52.430;16.936;2024-03-07T02:01:57;16.23;;;8.07;;
53903;SDS011;39812;52.430;16.936;2024-03-07T02:04:23;15.60;;;8.00;;
53903;SDS011;39812;52.430;16.936;2024-03-07T02:06:49;17.35;;;8.48;;
53903;SDS011;39812;52.430;16.936;2024-03-07T02:09:15;20.45;;;8.15;;
53903;SDS011;39812;52.430;16.936;2024-03-07T02:11:42;19.17;;;7.93;;
53903;SDS011;39812;52.430;16.936;2024-03-07T02:14:08;18.77;;;8.65;;
53903;SDS011;39812;52.430;16.936;2024-03-07T02:16:33;19.65;;;8.25;;
53903;SDS011;39812;52.430;16.936;2024-03-07T02:18:59;19.23;;;8.07;;
53903;SDS011;39812;52.430;16.936;2024-03-07T02:21:26;19.70;;;8.45;;
53903;SDS011;39812;52.430;16.936;2024-03-07T02:23:52;18.63;;;9.40;;
53903;SDS011;39812;52.430;16.936;2024-03-07T02:26:18;23.25;;;8.30;;
53903;SDS011;39812;52.430;16.936;2024-03-07T02:28:43;17.67;;;9.13;;
53903;SDS011;39812;52.430;16.936;2024-03-07T02:31:09;19.38;;;8.27;;
53903;SDS011;39812;52.430;16.936;2024-03-07T02:33:34;20.27;;;9.63;;
53903;SDS011;39812;52.430;16.936;2024-03-07T02:36:00;22.92;;;9.07;;
53903;SDS011;39812;52.430;16.936;2024-03-07T02:38:25;20.92;;;8.18;;
53903;SDS011;39812;52.430;16.936;2024-03-07T02:40:51;18.48;;;8.32;;
53903;SDS011;39812;52.430;16.936;2024-03-07T02:43:17;16.25;;;8.18;;
53903;SDS011;39812;52.430;16.936;2024-03-07T02:45:43;18.83;;;8.48;;
53903;SDS011;39812;52.430;16.936;2024-03-07T02:48:08;15.95;;;8.65;;
53903;SDS011;39812;52.430;16.936;2024-03-07T02:50:37;17.27;;;8.27;;
53903;SDS011;39812;52.430;16.936;2024-03-07T02:53:05;17.58;;;8.27;;
53903;SDS011;39812;52.430;16.936;2024-03-07T02:55:32;16.52;;;8.05;;
53903;SDS011;39812;52.430;16.936;2024-03-07T02:57:58;16.45;;;8.63;;
53903;SDS011;39812;52.430;16.936;2024-03-07T03:00:27;17.35;;;8.10;;
53903;SDS011;39812;52.430;16.936;2024-03-07T03:02:54;21.05;;;9.35;;
53903;SDS011;39812;52.430;16.936;2024-03-07T03:05:20;20.73;;;8.45;;
53903;SDS011;39812;52.430;16.936;2024-03-07T03:07:47;17.02;;;8.73;;
53903;SDS011;39812;52.430;16.936;2024-03-07T03:10:22;22.23;;;9.40;;
53903;SDS011;39812;52.430;16.936;2024-03-07T03:12:54;15.82;;;8.45;;
53903;SDS011;39812;52.430;16.936;2024-03-07T03:15:20;19.05;;;8.38;;
53903;SDS011;39812;52.430;16.936;2024-03-07T03:17:47;20.33;;;7.63;;
53903;SDS011;39812;52.430;16.936;2024-03-07T03:20:13;21.00;;;9.95;;
53903;SDS011;39812;52.430;16.936;2024-03-07T03:23:05;15.25;;;7.25;;
53903;SDS011;39812;52.430;16.936;2024-03-07T03:25:31;15.70;;;7.90;;
53903;SDS011;39812;52.430;16.936;2024-03-07T03:28:02;20.88;;;9.75;;
53903;SDS011;39812;52.430;16.936;2024-03-07T03:30:29;19.50;;;8.98;;
53903;SDS011;39812;52.430;16.936;2024-03-07T03:32:55;15.18;;;8.35;;
53903;SDS011;39812;52.430;16.936;2024-03-07T03:35:20;15.88;;;7.65;;
53903;SDS011;39812;52.430;16.936;2024-03-07T03:37:46;19.48;;;9.07;;
53903;SDS011;39812;52.430;16.936;2024-03-07T03:40:12;18.45;;;8.13;;
53903;SDS011;39812;52.430;16.936;2024-03-07T03:42:38;13.93;;;7.95;;
53903;SDS011;39812;52.430;16.936;2024-03-07T03:45:05;14.65;;;7.55;;
53903;SDS011;39812;52.430;16.936;2024-03-07T03:47:33;21.65;;;9.52;;
53903;SDS011;39812;52.430;16.936;2024-03-07T03:50:00;17.55;;;9.45;;
53903;SDS011;39812;52.430;16.936;2024-03-07T03:52:26;20.13;;;9.82;;
53903;SDS011;39812;52.430;16.936;2024-03-07T03:54:54;19.77;;;10.25;;
53903;SDS011;39812;52.430;16.936;2024-03-07T03:57:19;15.27;;;7.93;;
53903;SDS011;39812;52.430;16.936;2024-03-07T03:59:45;17.83;;;8.18;;
53903;SDS011;39812;52.430;16.936;2024-03-07T04:02:11;20.73;;;10.02;;
53903;SDS011;39812;52.430;16.936;2024-03-07T04:04:40;13.80;;;7.70;;
53903;SDS011;39812;52.430;16.936;2024-03-07T04:07:05;17.45;;;9.27;;
53903;SDS011;39812;52.430;16.936;2024-03-07T04:09:31;20.40;;;9.75;;
53903;SDS011;39812;52.430;16.936;2024-03-07T04:11:57;15.93;;;8.57;;
53903;SDS011;39812;52.430;16.936;2024-03-07T04:14:24;17.23;;;9.40;;
53903;SDS011;39812;52.430;16.936;2024-03-07T04:16:50;23.00;;;10.15;;
53903;SDS011;39812;52.430;16.936;2024-03-07T04:19:16;23.27;;;9.75;;
53903;SDS011;39812;52.430;16.936;2024-03-07T04:21:45;23.83;;;11.50;;
53903;SDS011;39812;52.430;16.936;2024-03-07T04:24:11;20.27;;;10.50;;
53903;SDS011;39812;52.430;16.936;2024-03-07T04:26:38;23.92;;;9.88;;
53903;SDS011;39812;52.430;16.936;2024-03-07T04:29:06;13.90;;;7.82;;
53903;SDS011;39812;52.430;16.936;2024-03-07T04:31:33;17.38;;;8.25;;
53903;SDS011;39812;52.430;16.936;2024-03-07T04:33:59;20.98;;;8.90;;
53903;SDS011;39812;52.430;16.936;2024-03-07T04:36:25;15.65;;;8.18;;
53903;SDS011;39812;52.430;16.936;2024-03-07T04:38:50;20.80;;;10.98;;
53903;SDS011;39812;52.430;16.936;2024-03-07T04:41:17;19.33;;;9.50;;
53903;SDS011;39812;52.430;16.936;2024-03-07T04:43:43;19.15;;;9.48;;
53903;SDS011;39812;52.430;16.936;2024-03-07T04:46:09;15.40;;;9.65;;
53903;SDS011;39812;52.430;16.936;2024-03-07T04:48:35;21.63;;;9.43;;
53903;SDS011;39812;52.430;16.936;2024-03-07T04:51:01;19.35;;;11.15;;
53903;SDS011;39812;52.430;16.936;2024-03-07T04:53:28;17.77;;;9.05;;
53903;SDS011;39812;52.430;16.936;2024-03-07T04:55:53;29.05;;;10.45;;
53903;SDS011;39812;52.430;16.936;2024-03-07T04:58:21;20.58;;;9.20;;
53903;SDS011;39812;52.430;16.936;2024-03-07T05:00:47;20.85;;;9.95;;
53903;SDS011;39812;52.430;16.936;2024-03-07T05:03:12;19.83;;;9.40;;
53903;SDS011;39812;52.430;16.936;2024-03-07T05:05:38;24.15;;;11.77;;
53903;SDS011;39812;52.430;16.936;2024-03-07T05:08:06;22.23;;;10.85;;
53903;SDS011;39812;52.430;16.936;2024-03-07T05:10:31;19.05;;;9.15;;
53903;SDS011;39812;52.430;16.936;2024-03-07T05:12:57;22.95;;;10.60;;
53903;SDS011;39812;52.430;16.936;2024-03-07T05:15:26;21.00;;;10.00;;
53903;SDS011;39812;52.430;16.936;2024-03-07T05:17:52;19.60;;;9.98;;
53903;SDS011;39812;52.430;16.936;2024-03-07T05:20:17;24.00;;;11.23;;
53903;SDS011;39812;52.430;16.936;2024-03-07T05:22:43;18.75;;;9.57;;
53903;SDS011;39812;52.430;16.936;2024-03-07T05:25:15;18.77;;;10.27;;
53903;SDS011;39812;52.430;16.936;2024-03-07T05:27:41;23.52;;;11.23;;
53903;SDS011;39812;52.430;16.936;2024-03-07T05:30:07;25.17;;;12.18;;
53903;SDS011;39812;52.430;16.936;2024-03-07T05:32:36;25.63;;;10.45;;
53903;SDS011;39812;52.430;16.936;2024-03-07T05:35:02;24.33;;;10.68;;
53903;SDS011;39812;52.430;16.936;2024-03-07T05:37:28;23.40;;;10.18;;
53903;SDS011;39812;52.430;16.936;2024-03-07T05:39:54;22.98;;;11.93;;
53903;SDS011;39812;52.430;16.936;2024-03-07T05:42:19;19.88;;;9.80;;
53903;SDS011;39812;52.430;16.936;2024-03-07T05:44:47;20.63;;;10.40;;
53903;SDS011;39812;52.430;16.936;2024-03-07T05:47:13;22.52;;;10.13;;
53903;SDS011;39812;52.430;16.936;2024-03-07T05:49:39;30.02;;;10.63;;
53903;SDS011;39812;52.430;16.936;2024-03-07T05:52:05;19.77;;;9.85;;
53903;SDS011;39812;52.430;16.936;2024-03-07T05:54:31;24.35;;;11.23;;
53903;SDS011;39812;52.430;16.936;2024-03-07T05:56:57;19.80;;;10.23;;
53903;SDS011;39812;52.430;16.936;2024-03-07T05:59:23;24.60;;;11.02;;
53903;SDS011;39812;52.430;16.936;2024-03-07T06:01:49;28.63;;;11.68;;
53903;SDS011;39812;52.430;16.936;2024-03-07T06:04:16;27.40;;;11.77;;
53903;SDS011;39812;52.430;16.936;2024-03-07T06:06:41;22.65;;;10.88;;
53903;SDS011;39812;52.430;16.936;2024-03-07T06:09:08;19.92;;;10.75;;
53903;SDS011;39812;52.430;16.936;2024-03-07T06:14:01;20.98;;;10.35;;
53903;SDS011;39812;52.430;16.936;2024-03-07T06:16:31;25.98;;;13.00;;
53903;SDS011;39812;52.430;16.936;2024-03-07T06:19:01;22.00;;;11.05;;
53903;SDS011;39812;52.430;16.936;2024-03-07T06:21:28;26.45;;;11.65;;
53903;SDS011;39812;52.430;16.936;2024-03-07T06:23:57;29.50;;;12.93;;
53903;SDS011;39812;52.430;16.936;2024-03-07T06:26:32;24.23;;;10.98;;
53903;SDS011;39812;52.430;16.936;2024-03-07T06:29:13;27.30;;;12.73;;
53903;SDS011;39812;52.430;16.936;2024-03-07T06:31:42;24.55;;;10.98;;
53903;SDS011;39812;52.430;16.936;2024-03-07T06:34:08;28.55;;;10.48;;
53903;SDS011;39812;52.430;16.936;2024-03-07T06:36:34;23.95;;;12.48;;
53903;SDS011;39812;52.430;16.936;2024-03-07T06:39:01;26.23;;;12.38;;
53903;SDS011;39812;52.430;16.936;2024-03-07T06:41:30;24.35;;;10.90;;
53903;SDS011;39812;52.430;16.936;2024-03-07T06:43:56;21.95;;;9.77;;
53903;SDS011;39812;52.430;16.936;2024-03-07T06:46:22;20.08;;;10.90;;
53903;SDS011;39812;52.430;16.936;2024-03-07T06:48:49;24.67;;;11.15;;
53903;SDS011;39812;52.430;16.936;2024-03-07T06:51:14;25.23;;;11.80;;
53903;SDS011;39812;52.430;16.936;2024-03-07T06:53:42;26.65;;;10.75;;
53903;SDS011;39812;52.430;16.936;2024-03-07T06:56:08;23.05;;;10.15;;
53903;SDS011;39812;52.430;16.936;2024-03-07T06:58:34;24.05;;;11.30;;
53903;SDS011;39812;52.430;16.936;2024-03-07T07:01:00;18.02;;;9.25;;
53903;SDS011;39812;52.430;16.936;2024-03-07T07:03:26;24.42;;;10.63;;
53903;SDS011;39812;52.430;16.936;2024-03-07T07:05:57;19.73;;;9.05;;
53903;SDS011;39812;52.430;16.936;2024-03-07T07:08:23;20.95;;;10.60;;
53903;SDS011;39812;52.430;16.936;2024-03-07T07:10:49;24.58;;;11.18;;
53903;SDS011;39812;52.430;16.936;2024-03-07T07:13:15;20.70;;;10.25;;
53903;SDS011;39812;52.430;16.936;2024-03-07T07:15:41;27.52;;;12.00;;
53903;SDS011;39812;52.430;16.936;2024-03-07T07:18:08;21.13;;;10.02;;
53903;SDS011;39812;52.430;16.936;2024-03-07T07:20:35;17.90;;;9.32;;
53903;SDS011;39812;52.430;16.936;2024-03-07T07:23:01;17.77;;;9.77;;
53903;SDS011;39812;52.430;16.936;2024-03-07T07:25:28;20.63;;;9.63;;
53903;SDS011;39812;52.430;16.936;2024-03-07T07:27:54;24.92;;;10.15;;
53903;SDS011;39812;52.430;16.936;2024-03-07T07:30:21;22.30;;;9.95;;
53903;SDS011;39812;52.430;16.936;2024-03-07T07:32:48;22.40;;;9.25;;
53903;SDS011;39812;52.430;16.936;2024-03-07T07:35:15;20.63;;;10.00;;
53903;SDS011;39812;52.430;16.936;2024-03-07T07:37:47;21.80;;;9.70;;
53903;SDS011;39812;52.430;16.936;2024-03-07T07:40:15;22.35;;;10.27;;
53903;SDS011;39812;52.430;16.936;2024-03-07T07:42:46;19.35;;;9.20;;
53903;SDS011;39812;52.430;16.936;2024-03-07T07:45:13;25.70;;;9.43;;
53903;SDS011;39812;52.430;16.936;2024-03-07T07:47:41;19.73;;;10.20;;
53903;SDS011;39812;52.430;16.936;2024-03-07T07:50:08;22.67;;;10.20;;
53903;SDS011;39812;52.430;16.936;2024-03-07T07:55:08;18.55;;;8.55;;
53903;SDS011;39812;52.430;16.936;2024-03-07T07:57:47;18.23;;;8.50;;
53903;SDS011;39812;52.430;16.936;2024-03-07T08:00:15;19.35;;;9.07;;
53903;SDS011;39812;52.430;16.936;2024-03-07T08:02:54;21.50;;;10.07;;
53903;SDS011;39812;52.430;16.936;2024-03-07T08:05:25;19.58;;;9.20;;
53903;SDS011;39812;52.430;16.936;2024-03-07T08:08:07;18.42;;;8.05;;
53903;SDS011;39812;52.430;16.936;2024-03-07T08:10:34;17.05;;;8.38;;
53903;SDS011;39812;52.430;16.936;2024-03-07T08:13:01;22.02;;;8.23;;
53903;SDS011;39812;52.430;16.936;2024-03-07T08:15:28;17.70;;;8.43;;
53903;SDS011;39812;52.430;16.936;2024-03-07T08:17:55;23.45;;;9.57;;
53903;SDS011;39812;52.430;16.936;2024-03-07T08:20:22;22.27;;;9.45;;
53903;SDS011;39812;52.430;16.936;2024-03-07T08:22:49;20.23;;;8.38;;
53903;SDS011;39812;52.430;16.936;2024-03-07T08:25:18;17.67;;;9.15;;
53903;SDS011;39812;52.430;16.936;2024-03-07T08:27:47;19.50;;;8.93;;
53903;SDS011;39812;52.430;16.936;2024-03-07T08:30:13;19.38;;;9.30;;
53903;SDS011;39812;52.430;16.936;2024-03-07T08:32:47;17.25;;;8.38;;
53903;SDS011;39812;52.430;16.936;2024-03-07T08:35:13;17.00;;;8.30;;
53903;SDS011;39812;52.430;16.936;2024-03-07T08:37:44;21.80;;;10.40;;
53903;SDS011;39812;52.430;16.936;2024-03-07T08:40:11;23.05;;;8.70;;
53903;SDS011;39812;52.430;16.936;2024-03-07T08:42:44;23.98;;;9.68;;
53903;SDS011;39812;52.430;16.936;2024-03-07T08:45:15;22.60;;;9.15;;
53903;SDS011;39812;52.430;16.936;2024-03-07T08:47:44;17.20;;;7.85;;
53903;SDS011;39812;52.430;16.936;2024-03-07T08:50:13;21.70;;;8.82;;
53903;SDS011;39812;52.430;16.936;2024-03-07T08:52:39;19.60;;;8.27;;
53903;SDS011;39812;52.430;16.936;2024-03-07T08:55:06;18.63;;;8.20;;
53903;SDS011;39812;52.430;16.936;2024-03-07T08:57:36;20.50;;;8.77;;
53903;SDS011;39812;52.430;16.936;2024-03-07T09:00:02;18.85;;;7.13;;
53903;SDS011;39812;52.430;16.936;2024-03-07T09:02:33;16.60;;;8.65;;
53903;SDS011;39812;52.430;16.936;2024-03-07T09:04:59;17.95;;;7.68;;
53903;SDS011;39812;52.430;16.936;2024-03-07T09:07:25;16.15;;;8.40;;
53903;SDS011;39812;52.430;16.936;2024-03-07T09:09:51;16.70;;;8.38;;
53903;SDS011;39812;52.430;16.936;2024-03-07T09:12:17;19.35;;;8.60;;
53903;SDS011;39812;52.430;16.936;2024-03-07T09:14:45;16.70;;;8.02;;
53903;SDS011;39812;52.430;16.936;2024-03-07T09:17:11;17.10;;;8.68;;
53903;SDS011;39812;52.430;16.936;2024-03-07T09:19:37;21.40;;;9.00;;
53903;SDS011;39812;52.430;16.936;2024-03-07T09:22:03;14.95;;;7.75;;
53903;SDS011;39812;52.430;16.936;2024-03-07T09:24:29;16.30;;;7.88;;
53903;SDS011;39812;52.430;16.936;2024-03-07T09:26:55;19.90;;;9.02;;
53903;SDS011;39812;52.430;16.936;2024-03-07T09:29:21;16.73;;;7.68;;
53903;SDS011;39812;52.430;16.936;2024-03-07T09:31:51;18.00;;;8.48;;
53903;SDS011;39812;52.430;16.936;2024-03-07T09:34:18;14.70;;;7.85;;
53903;SDS011;39812;52.430;16.936;2024-03-07T09:36:45;18.73;;;8.73;;
53903;SDS011;39812;52.430;16.936;2024-03-07T09:39:11;16.15;;;7.93;;
53903;SDS011;39812;52.430;16.936;2024-03-07T09:41:37;18.73;;;8.30;;
53903;SDS011;39812;52.430;16.936;2024-03-07T09:44:04;21.40;;;8.68;;
53903;SDS011;39812;52.430;16.936;2024-03-07T09:46:30;18.25;;;8.45;;
53903;SDS011;39812;52.430;16.936;2024-03-07T09:48:56;17.95;;;7.88;;
53903;SDS011;39812;52.430;16.936;2024-03-07T09:51:23;16.13;;;8.27;;
53903;SDS011;39812;52.430;16.936;2024-03-07T09:53:50;18.98;;;8.43;;
53903;SDS011;39812;52.430;16.936;2024-03-07T09:56:19;16.90;;;7.93;;
53903;SDS011;39812;52.430;16.936;2024-03-07T09:58:48;21.55;;;8.00;;
53903;SDS011;39812;52.430;16.936;2024-03-07T10:01:15;19.40;;;8.55;;
53903;SDS011;39812;52.430;16.936;2024-03-07T10:03:42;15.27;;;8.40;;
53903;SDS011;39812;52.430;16.936;2024-03-07T10:06:10;18.85;;;8.02;;
53903;SDS011;39812;52.430;16.936;2024-03-07T10:08:36;15.55;;;7.97;;
53903;SDS011;39812;52.430;16.936;2024-03-07T10:11:02;20.17;;;8.10;;
53903;SDS011;39812;52.430;16.936;2024-03-07T10:13:28;17.85;;;7.78;;
53903;SDS011;39812;52.430;16.936;2024-03-07T10:15:56;16.15;;;7.50;;
53903;SDS011;39812;52.430;16.936;2024-03-07T10:18:25;19.13;;;7.32;;
53903;SDS011;39812;52.430;16.936;2024-03-07T10:20:55;17.65;;;7.45;;
53903;SDS011;39812;52.430;16.936;2024-03-07T10:23:21;16.08;;;7.18;;
53903;SDS011;39812;52.430;16.936;2024-03-07T10:25:47;18.42;;;8.15;;
53903;SDS011;39812;52.430;16.936;2024-03-07T10:28:15;13.15;;;6.18;;
53903;SDS011;39812;52.430;16.936;2024-03-07T10:30:42;17.63;;;9.35;;
53903;SDS011;39812;52.430;16.936;2024-03-07T10:33:11;15.30;;;8.02;;
53903;SDS011;39812;52.430;16.936;2024-03-07T10:35:37;16.83;;;7.32;;
53903;SDS011;39812;52.430;16.936;2024-03-07T10:38:03;14.35;;;6.95;;
53903;SDS011;39812;52.430;16.936;2024-03-07T10:40:31;15.05;;;6.38;;
53903;SDS011;39812;52.430;16.936;2024-03-07T10:42:58;16.17;;;6.75;;
53903;SDS011;39812;52.430;16.936;2024-03-07T10:45:27;15.32;;;7.40;;
53903;SDS011;39812;52.430;16.936;2024-03-07T10:47:56;16.10;;;7.57;;
53903;SDS011;39812;52.430;16.936;2024-03-07T10:55:42;16.35;;;6.93;;
53903;SDS011;39812;52.430;16.936;2024-03-07T10:58:58;20.35;;;7.47;;
53903;SDS011;39812;52.430;16.936;2024-03-07T11:01:24;11.25;;;6.18;;
53903;SDS011;39812;52.430;16.936;2024-03-07T11:03:55;16.10;;;6.75;;
53903;SDS011;39812;52.430;16.936;2024-03-07T11:06:22;14.75;;;6.63;;
53903;SDS011;39812;52.430;16.936;2024-03-07T11:08:49;13.75;;;6.90;;
53903;SDS011;39812;52.430;16.936;2024-03-07T11:11:16;15.93;;;6.90;;
53903;SDS011;39812;52.430;16.936;2024-03-07T11:13:42;16.38;;;7.00;;
53903;SDS011;39812;52.430;16.936;2024-03-07T11:16:09;15.48;;;7.47;;
53903;SDS011;39812;52.430;16.936;2024-03-07T11:18:35;11.60;;;6.57;;
53903;SDS011;39812;52.430;16.936;2024-03-07T11:21:01;12.38;;;6.32;;
53903;SDS011;39812;52.430;16.936;2024-03-07T11:23:30;13.38;;;6.63;;
53903;SDS011;39812;52.430;16.936;2024-03-07T11:26:10;18.00;;;7.72;;
53903;SDS011;39812;52.430;16.936;2024-03-07T11:28:37;15.93;;;6.72;;
53903;SDS011;39812;52.430;16.936;2024-03-07T11:34:11;16.52;;;6.90;;
53903;SDS011;39812;52.430;16.936;2024-03-07T11:36:42;13.75;;;6.70;;
53903;SDS011;39812;52.430;16.936;2024-03-07T11:42:07;17.92;;;7.78;;
53903;SDS011;39812;52.430;16.936;2024-03-07T11:44:33;13.95;;;8.15;;
53903;SDS011;39812;52.430;16.936;2024-03-07T11:47:05;13.25;;;6.10;;
53903;SDS011;39812;52.430;16.936;2024-03-07T11:49:36;12.90;;;6.30;;
53903;SDS011;39812;52.430;16.936;2024-03-07T11:52:05;17.08;;;7.60;;
53903;SDS011;39812;52.430;16.936;2024-03-07T11:54:39;14.52;;;6.80;;
53903;SDS011;39812;52.430;16.936;2024-03-07T11:57:06;17.10;;;6.82;;
53903;SDS011;39812;52.430;16.936;2024-03-07T11:59:39;12.77;;;6.20;;
53903;SDS011;39812;52.430;16.936;2024-03-07T12:02:10;10.82;;;5.88;;
53903;SDS011;39812;52.430;16.936;2024-03-07T12:04:36;13.57;;;7.13;;
53903;SDS011;39812;52.430;16.936;2024-03-07T12:07:01;13.43;;;6.85;;
53903;SDS011;39812;52.430;16.936;2024-03-07T12:09:31;12.40;;;6.82;;
53903;SDS011;39812;52.430;16.936;2024-03-07T12:11:56;11.07;;;6.72;;
53903;SDS011;39812;52.430;16.936;2024-03-07T12:14:24;15.13;;;7.00;;
53903;SDS011;39812;52.430;16.936;2024-03-07T12:16:50;12.02;;;6.10;;
53903;SDS011;39812;52.430;16.936;2024-03-07T12:19:17;15.88;;;7.43;;
53903;SDS011;39812;52.430;16.936;2024-03-07T12:21:46;13.07;;;6.38;;
53903;SDS011;39812;52.430;16.936;2024-03-07T12:24:13;14.48;;;6.82;;
53903;SDS011;39812;52.430;16.936;2024-03-07T12:26:40;10.90;;;5.90;;
53903;SDS011;39812;52.430;16.936;2024-03-07T12:29:10;11.98;;;6.25;;
53903;SDS011;39812;52.430;16.936;2024-03-07T12:31:37;11.68;;;6.53;;
53903;SDS011;39812;52.430;16.936;2024-03-07T12:34:03;11.48;;;6.75;;
53903;SDS011;39812;52.430;16.936;2024-03-07T12:36:30;12.50;;;6.93;;
53903;SDS011;39812;52.430;16.936;2024-03-07T12:39:00;10.60;;;6.65;;
53903;SDS011;39812;52.430;16.936;2024-03-07T12:41:49;14.27;;;7.00;;
53903;SDS011;39812;52.430;16.936;2024-03-07T12:44:18;10.02;;;6.68;;
53903;SDS011;39812;52.430;16.936;2024-03-07T12:46:53;9.57;;;6.10;;
53903;SDS011;39812;52.430;16.936;2024-03-07T12:49:21;10.63;;;6.85;;
53903;SDS011;39812;52.430;16.936;2024-03-07T12:51:51;11.70;;;6.85;;
53903;SDS011;39812;52.430;16.936;2024-03-07T12:54:19;12.25;;;7.43;;
53903;SDS011;39812;52.430;16.936;2024-03-07T12:56:44;11.50;;;7.32;;
53903;SDS011;39812;52.430;16.936;2024-03-07T12:59:10;12.13;;;7.72;;
53903;SDS011;39812;52.430;16.936;2024-03-07T13:01:36;12.27;;;6.95;;
53903;SDS011;39812;52.430;16.936;2024-03-07T13:04:09;11.90;;;7.28;;
53903;SDS011;39812;52.430;16.936;2024-03-07T13:06:35;12.13;;;7.57;;
53903;SDS011;39812;52.430;16.936;2024-03-07T13:09:01;11.48;;;7.03;;
53903;SDS011;39812;52.430;16.936;2024-03-07T13:11:27;12.15;;;7.38;;
53903;SDS011;39812;52.430;16.936;2024-03-07T13:13:55;13.93;;;7.85;;
53903;SDS011;39812;52.430;16.936;2024-03-07T13:16:21;10.93;;;7.18;;
53903;SDS011;39812;52.430;16.936;2024-03-07T13:18:52;11.45;;;7.40;;
53903;SDS011;39812;52.430;16.936;2024-03-07T13:21:21;10.68;;;6.97;;
53903;SDS011;39812;52.430;16.936;2024-03-07T13:23:47;11.60;;;7.63;;
53903;SDS011;39812;52.430;16.936;2024-03-07T13:26:12;12.85;;;6.72;;
53903;SDS011;39812;52.430;16.936;2024-03-07T13:28:45;13.40;;;8.35;;
53903;SDS011;39812;52.430;16.936;2024-03-07T13:31:12;12.40;;;7.85;;
53903;SDS011;39812;52.430;16.936;2024-03-07T13:33:38;11.10;;;7.55;;
53903;SDS011;39812;52.430;16.936;2024-03-07T13:36:03;13.57;;;8.60;;
53903;SDS011;39812;52.430;16.936;2024-03-07T13:38:29;14.68;;;8.60;;
53903;SDS011;39812;52.430;16.936;2024-03-07T13:40:55;12.32;;;7.53;;
53903;SDS011;39812;52.430;16.936;2024-03-07T13:43:22;12.63;;;6.85;;
53903;SDS011;39812;52.430;16.936;2024-03-07T13:45:48;11.23;;;6.60;;
53903;SDS011;39812;52.430;16.936;2024-03-07T13:48:14;12.98;;;6.95;;
53903;SDS011;39812;52.430;16.936;2024-03-07T13:50:42;10.63;;;6.57;;
53903;SDS011;39812;52.430;16.936;2024-03-07T13:53:13;11.32;;;6.80;;
53903;SDS011;39812;52.430;16.936;2024-03-07T14:01:09;12.30;;;7.88;;
53903;SDS011;39812;52.430;16.936;2024-03-07T14:13:39;15.77;;;7.93;;
53903;SDS011;39812;52.430;16.936;2024-03-07T14:22:21;13.48;;;8.15;;
53903;SDS011;39812;52.430;16.936;2024-03-07T14:27:50;11.93;;;7.35;;
53903;SDS011;39812;52.430;16.936;2024-03-07T14:30:40;11.48;;;6.95;;
53903;SDS011;39812;52.430;16.936;2024-03-07T14:33:18;12.40;;;7.85;;
53903;SDS011;39812;52.430;16.936;2024-03-07T14:36:06;14.50;;;7.80;;
53903;SDS011;39812;52.430;16.936;2024-03-07T14:41:05;12.75;;;7.80;;
53903;SDS011;39812;52.430;16.936;2024-03-07T14:43:32;14.35;;;8.38;;
53903;SDS011;39812;52.430;16.936;2024-03-07T14:45:59;13.55;;;8.20;;
53903;SDS011;39812;52.430;16.936;2024-03-07T14:48:25;12.55;;;8.20;;
53903;SDS011;39812;52.430;16.936;2024-03-07T14:50:52;14.20;;;8.38;;
53903;SDS011;39812;52.430;16.936;2024-03-07T14:53:18;13.77;;;8.15;;
53903;SDS011;39812;52.430;16.936;2024-03-07T14:55:48;13.88;;;8.10;;
53903;SDS011;39812;52.430;16.936;2024-03-07T14:58:13;13.02;;;7.93;;
53903;SDS011;39812;52.430;16.936;2024-03-07T15:00:41;12.45;;;7.88;;
53903;SDS011;39812;52.430;16.936;2024-03-07T15:03:14;13.02;;;8.05;;
53903;SDS011;39812;52.430;16.936;2024-03-07T15:05:42;14.10;;;7.90;;